sensor_id;sensor_type;location;lat;lon;timestamp;temperature;humidity
21355;DHT22;10835;50.148;19.760;2023-04-24T00:01:22;24.40;41.00
21355;DHT22;10835;50.148;19.760;2023-04-24T00:03:50;24.00;40.90
21355;DHT22;10835;50.148;19.760;2023-04-24T00:06:19;23.40;41.80
21355;DHT22;10835;50.148;19.760;2023-04-24T00:08:47;23.00;42.40
21355;DHT22;10835;50.148;19.760;2023-04-24T00:11:15;22.80;42.80
21355;DHT22;10835;50.148;19.760;2023-04-24T00:13:45;22.80;43.10
21355;DHT22;10835;50.148;19.760;2023-04-24T00:16:13;23.00;42.70
21355;DHT22;10835;50.148;19.760;2023-04-24T00:18:41;23.10;42.30
21355;DHT22;10835;50.148;19.760;2023-04-24T00:21:11;23.00;42.40
21355;DHT22;10835;50.148;19.760;2023-04-24T00:23:40;22.90;42.60
21355;DHT22;10835;50.148;19.760;2023-04-24T00:26:08;22.60;42.70
21355;DHT22;10835;50.148;19.760;2023-04-24T00:28:36;22.80;43.20
21355;DHT22;10835;50.148;19.760;2023-04-24T00:31:06;22.50;42.90
21355;DHT22;10835;50.148;19.760;2023-04-24T00:33:35;23.10;42.60
21355;DHT22;10835;50.148;19.760;2023-04-24T00:36:03;22.70;43.10
21355;DHT22;10835;50.148;19.760;2023-04-24T00:38:32;23.30;42.20
21355;DHT22;10835;50.148;19.760;2023-04-24T00:41:00;23.40;42.80
21355;DHT22;10835;50.148;19.760;2023-04-24T00:43:29;23.30;41.90
21355;DHT22;10835;50.148;19.760;2023-04-24T00:45:57;23.20;42.10
21355;DHT22;10835;50.148;19.760;2023-04-24T00:48:27;23.50;42.20
21355;DHT22;10835;50.148;19.760;2023-04-24T00:50:56;23.40;42.20
21355;DHT22;10835;50.148;19.760;2023-04-24T00:53:25;23.20;41.70
21355;DHT22;10835;50.148;19.760;2023-04-24T00:55:53;23.20;42.20
21355;DHT22;10835;50.148;19.760;2023-04-24T00:58:22;23.40;41.90
21355;DHT22;10835;50.148;19.760;2023-04-24T01:00:51;22.70;42.20
21355;DHT22;10835;50.148;19.760;2023-04-24T01:03:22;22.50;42.80
21355;DHT22;10835;50.148;19.760;2023-04-24T01:05:54;22.50;43.30
21355;DHT22;10835;50.148;19.760;2023-04-24T01:08:24;22.40;43.50
21355;DHT22;10835;50.148;19.760;2023-04-24T01:10:53;22.70;43.10
21355;DHT22;10835;50.148;19.760;2023-04-24T01:13:21;23.00;43.20
21355;DHT22;10835;50.148;19.760;2023-04-24T01:15:49;23.40;42.60
21355;DHT22;10835;50.148;19.760;2023-04-24T01:18:17;23.80;42.40
21355;DHT22;10835;50.148;19.760;2023-04-24T01:20:46;24.00;41.20
21355;DHT22;10835;50.148;19.760;2023-04-24T01:23:17;24.00;40.90
21355;DHT22;10835;50.148;19.760;2023-04-24T01:25:45;24.20;39.80
21355;DHT22;10835;50.148;19.760;2023-04-24T01:28:14;24.10;40.40
21355;DHT22;10835;50.148;19.760;2023-04-24T01:30:42;24.20;40.90
21355;DHT22;10835;50.148;19.760;2023-04-24T01:33:11;24.00;40.40
21355;DHT22;10835;50.148;19.760;2023-04-24T01:35:40;24.00;40.60
21355;DHT22;10835;50.148;19.760;2023-04-24T01:38:08;23.60;40.90
21355;DHT22;10835;50.148;19.760;2023-04-24T01:40:38;23.10;41.30
21355;DHT22;10835;50.148;19.760;2023-04-24T01:43:06;22.90;42.00
21355;DHT22;10835;50.148;19.760;2023-04-24T01:45:34;23.00;42.30
21355;DHT22;10835;50.148;19.760;2023-04-24T01:48:04;23.00;41.90
21355;DHT22;10835;50.148;19.760;2023-04-24T01:50:32;22.80;42.00
21355;DHT22;10835;50.148;19.760;2023-04-24T01:53:00;22.60;42.40
21355;DHT22;10835;50.148;19.760;2023-04-24T01:55:29;22.60;42.50
21355;DHT22;10835;50.148;19.760;2023-04-24T01:57:59;22.50;42.70
21355;DHT22;10835;50.148;19.760;2023-04-24T02:00:29;22.70;42.40
21355;DHT22;10835;50.148;19.760;2023-04-24T02:02:57;22.90;42.10
21355;DHT22;10835;50.148;19.760;2023-04-24T02:05:26;22.90;42.00
21355;DHT22;10835;50.148;19.760;2023-04-24T02:07:55;23.00;42.20
21355;DHT22;10835;50.148;19.760;2023-04-24T02:10:23;23.00;41.80
21355;DHT22;10835;50.148;19.760;2023-04-24T02:12:52;22.90;41.80
21355;DHT22;10835;50.148;19.760;2023-04-24T02:15:24;22.80;42.00
21355;DHT22;10835;50.148;19.760;2023-04-24T02:17:53;23.00;41.90
21355;DHT22;10835;50.148;19.760;2023-04-24T02:20:21;22.90;42.00
21355;DHT22;10835;50.148;19.760;2023-04-24T02:22:51;22.70;41.90
21355;DHT22;10835;50.148;19.760;2023-04-24T02:25:19;22.60;41.90
21355;DHT22;10835;50.148;19.760;2023-04-24T02:27:47;22.70;42.30
21355;DHT22;10835;50.148;19.760;2023-04-24T02:30:15;23.00;42.00
21355;DHT22;10835;50.148;19.760;2023-04-24T02:32:46;23.40;41.30
21355;DHT22;10835;50.148;19.760;2023-04-24T02:35:14;23.70;40.50
21355;DHT22;10835;50.148;19.760;2023-04-24T02:37:42;23.70;40.60
21355;DHT22;10835;50.148;19.760;2023-04-24T02:40:11;23.40;40.70
21355;DHT22;10835;50.148;19.760;2023-04-24T02:42:40;23.10;40.70
21355;DHT22;10835;50.148;19.760;2023-04-24T02:45:09;22.90;41.40
21355;DHT22;10835;50.148;19.760;2023-04-24T02:47:38;22.50;41.40
21355;DHT22;10835;50.148;19.760;2023-04-24T02:50:08;22.20;42.60
21355;DHT22;10835;50.148;19.760;2023-04-24T02:52:36;22.50;42.60
21355;DHT22;10835;50.148;19.760;2023-04-24T02:55:05;22.10;42.20
21355;DHT22;10835;50.148;19.760;2023-04-24T02:57:35;21.40;43.00
21355;DHT22;10835;50.148;19.760;2023-04-24T03:00:04;21.40;43.70
21355;DHT22;10835;50.148;19.760;2023-04-24T03:02:34;21.10;43.90
21355;DHT22;10835;50.148;19.760;2023-04-24T03:05:02;21.30;44.40
21355;DHT22;10835;50.148;19.760;2023-04-24T03:07:32;21.40;44.40
21355;DHT22;10835;50.148;19.760;2023-04-24T03:10:00;21.60;43.80
21355;DHT22;10835;50.148;19.760;2023-04-24T03:12:29;21.60;44.00
21355;DHT22;10835;50.148;19.760;2023-04-24T03:14:57;21.90;43.50
21355;DHT22;10835;50.148;19.760;2023-04-24T03:17:25;21.90;43.30
21355;DHT22;10835;50.148;19.760;2023-04-24T03:19:53;21.50;43.30
21355;DHT22;10835;50.148;19.760;2023-04-24T03:22:22;21.40;44.10
21355;DHT22;10835;50.148;19.760;2023-04-24T03:24:53;21.90;43.80
21355;DHT22;10835;50.148;19.760;2023-04-24T03:27:23;21.70;43.30
21355;DHT22;10835;50.148;19.760;2023-04-24T03:30:04;21.60;43.50
21355;DHT22;10835;50.148;19.760;2023-04-24T03:32:56;21.20;44.10
21355;DHT22;10835;50.148;19.760;2023-04-24T03:35:28;21.60;44.10
21355;DHT22;10835;50.148;19.760;2023-04-24T03:38:00;21.40;43.70
21355;DHT22;10835;50.148;19.760;2023-04-24T03:40:50;21.10;44.50
21355;DHT22;10835;50.148;19.760;2023-04-24T03:43:34;21.70;44.20
21355;DHT22;10835;50.148;19.760;2023-04-24T03:46:04;21.50;43.90
21355;DHT22;10835;50.148;19.760;2023-04-24T03:48:37;21.80;44.10
21355;DHT22;10835;50.148;19.760;2023-04-24T03:51:07;21.70;43.90
21355;DHT22;10835;50.148;19.760;2023-04-24T03:53:38;21.70;43.80
21355;DHT22;10835;50.148;19.760;2023-04-24T03:56:09;21.50;44.40
21355;DHT22;10835;50.148;19.760;2023-04-24T03:58:39;21.20;44.20
21355;DHT22;10835;50.148;19.760;2023-04-24T04:01:08;21.30;44.70
21355;DHT22;10835;50.148;19.760;2023-04-24T04:03:51;21.40;44.60
21355;DHT22;10835;50.148;19.760;2023-04-24T04:06:25;21.70;45.00
21355;DHT22;10835;50.148;19.760;2023-04-24T04:08:54;21.50;44.50
21355;DHT22;10835;50.148;19.760;2023-04-24T04:11:25;22.10;44.20
21355;DHT22;10835;50.148;19.760;2023-04-24T04:13:53;22.30;44.20
21355;DHT22;10835;50.148;19.760;2023-04-24T04:16:21;22.50;43.30
21355;DHT22;10835;50.148;19.760;2023-04-24T04:18:54;22.00;43.30
21355;DHT22;10835;50.148;19.760;2023-04-24T04:21:22;22.30;44.20
21355;DHT22;10835;50.148;19.760;2023-04-24T04:23:56;22.30;44.10
21355;DHT22;10835;50.148;19.760;2023-04-24T04:26:32;22.40;43.70
21355;DHT22;10835;50.148;19.760;2023-04-24T04:29:04;22.10;43.70
21355;DHT22;10835;50.148;19.760;2023-04-24T04:31:36;22.70;44.10
21355;DHT22;10835;50.148;19.760;2023-04-24T04:34:09;23.00;43.70
21355;DHT22;10835;50.148;19.760;2023-04-24T04:36:39;23.10;43.20
21355;DHT22;10835;50.148;19.760;2023-04-24T04:39:20;22.80;43.10
21355;DHT22;10835;50.148;19.760;2023-04-24T04:41:57;23.00;43.80
21355;DHT22;10835;50.148;19.760;2023-04-24T04:44:30;23.50;43.00
21355;DHT22;10835;50.148;19.760;2023-04-24T04:47:00;23.60;42.80
21355;DHT22;10835;50.148;19.760;2023-04-24T04:49:35;23.80;42.70
21355;DHT22;10835;50.148;19.760;2023-04-24T04:52:06;23.80;42.50
21355;DHT22;10835;50.148;19.760;2023-04-24T04:54:35;24.40;42.60
21355;DHT22;10835;50.148;19.760;2023-04-24T04:57:05;24.90;42.30
21355;DHT22;10835;50.148;19.760;2023-04-24T04:59:35;25.30;42.20
21355;DHT22;10835;50.148;19.760;2023-04-24T05:02:08;25.50;40.70
21355;DHT22;10835;50.148;19.760;2023-04-24T05:04:37;25.50;40.60
21355;DHT22;10835;50.148;19.760;2023-04-24T05:07:05;26.00;41.60
21355;DHT22;10835;50.148;19.760;2023-04-24T05:09:39;26.40;41.00
21355;DHT22;10835;50.148;19.760;2023-04-24T05:12:10;26.70;40.90
21355;DHT22;10835;50.148;19.760;2023-04-24T05:14:46;27.00;39.30
21355;DHT22;10835;50.148;19.760;2023-04-24T05:17:14;27.00;39.20
21355;DHT22;10835;50.148;19.760;2023-04-24T05:19:45;27.30;36.80
21355;DHT22;10835;50.148;19.760;2023-04-24T05:22:16;27.30;37.10
21355;DHT22;10835;50.148;19.760;2023-04-24T05:24:50;27.30;37.90
21355;DHT22;10835;50.148;19.760;2023-04-24T05:27:42;27.70;37.80
21355;DHT22;10835;50.148;19.760;2023-04-24T05:30:14;28.00;34.80
21355;DHT22;10835;50.148;19.760;2023-04-24T05:32:43;28.20;34.20
21355;DHT22;10835;50.148;19.760;2023-04-24T05:35:13;28.40;34.30
21355;DHT22;10835;50.148;19.760;2023-04-24T05:37:41;28.60;35.50
21355;DHT22;10835;50.148;19.760;2023-04-24T05:40:11;28.60;34.20
21355;DHT22;10835;50.148;19.760;2023-04-24T05:42:41;28.60;32.90
21355;DHT22;10835;50.148;19.760;2023-04-24T05:45:11;28.80;34.10
21355;DHT22;10835;50.148;19.760;2023-04-24T05:47:43;28.90;34.60
21355;DHT22;10835;50.148;19.760;2023-04-24T05:50:12;29.00;33.70
21355;DHT22;10835;50.148;19.760;2023-04-24T05:52:40;29.20;33.40
21355;DHT22;10835;50.148;19.760;2023-04-24T05:55:24;28.90;32.80
21355;DHT22;10835;50.148;19.760;2023-04-24T05:57:54;29.20;32.60
21355;DHT22;10835;50.148;19.760;2023-04-24T06:00:26;29.50;32.20
21355;DHT22;10835;50.148;19.760;2023-04-24T06:03:03;29.70;30.90
21355;DHT22;10835;50.148;19.760;2023-04-24T06:05:34;29.60;32.50
21355;DHT22;10835;50.148;19.760;2023-04-24T06:08:04;29.90;31.80
21355;DHT22;10835;50.148;19.760;2023-04-24T06:10:36;30.00;29.70
21355;DHT22;10835;50.148;19.760;2023-04-24T06:13:08;30.10;32.20
21355;DHT22;10835;50.148;19.760;2023-04-24T06:15:40;29.80;29.70
21355;DHT22;10835;50.148;19.760;2023-04-24T06:18:13;29.90;31.00
21355;DHT22;10835;50.148;19.760;2023-04-24T06:20:42;29.90;30.30
21355;DHT22;10835;50.148;19.760;2023-04-24T06:23:10;30.20;30.30
21355;DHT22;10835;50.148;19.760;2023-04-24T06:25:38;30.40;30.10
21355;DHT22;10835;50.148;19.760;2023-04-24T06:28:08;29.90;30.50
21355;DHT22;10835;50.148;19.760;2023-04-24T06:30:36;30.50;30.30
21355;DHT22;10835;50.148;19.760;2023-04-24T06:33:04;30.60;29.90
21355;DHT22;10835;50.148;19.760;2023-04-24T06:35:45;30.20;30.00
21355;DHT22;10835;50.148;19.760;2023-04-24T06:38:14;30.20;29.70
21355;DHT22;10835;50.148;19.760;2023-04-24T06:40:42;30.50;30.70
21355;DHT22;10835;50.148;19.760;2023-04-24T06:43:12;30.80;28.90
21355;DHT22;10835;50.148;19.760;2023-04-24T06:45:41;31.10;30.10
21355;DHT22;10835;50.148;19.760;2023-04-24T06:48:10;31.30;29.60
21355;DHT22;10835;50.148;19.760;2023-04-24T06:50:39;31.10;30.00
21355;DHT22;10835;50.148;19.760;2023-04-24T06:53:07;30.70;30.20
21355;DHT22;10835;50.148;19.760;2023-04-24T06:55:37;31.10;30.40
21355;DHT22;10835;50.148;19.760;2023-04-24T06:58:06;31.40;29.50
21355;DHT22;10835;50.148;19.760;2023-04-24T07:00:36;31.70;30.00
21355;DHT22;10835;50.148;19.760;2023-04-24T07:03:07;31.10;29.70
21355;DHT22;10835;50.148;19.760;2023-04-24T07:05:39;30.80;29.40
21355;DHT22;10835;50.148;19.760;2023-04-24T07:08:08;30.10;29.60
21355;DHT22;10835;50.148;19.760;2023-04-24T07:10:38;31.00;30.00
21355;DHT22;10835;50.148;19.760;2023-04-24T07:13:06;31.40;29.30
21355;DHT22;10835;50.148;19.760;2023-04-24T07:15:36;31.70;29.70
21355;DHT22;10835;50.148;19.760;2023-04-24T07:18:05;31.90;29.20
21355;DHT22;10835;50.148;19.760;2023-04-24T07:20:33;31.90;29.60
21355;DHT22;10835;50.148;19.760;2023-04-24T07:23:01;32.00;28.90
21355;DHT22;10835;50.148;19.760;2023-04-24T07:25:33;32.20;29.30
21355;DHT22;10835;50.148;19.760;2023-04-24T07:28:01;32.30;30.60
21355;DHT22;10835;50.148;19.760;2023-04-24T07:30:31;32.30;28.50
21355;DHT22;10835;50.148;19.760;2023-04-24T07:33:01;32.30;29.00
21355;DHT22;10835;50.148;19.760;2023-04-24T07:35:29;32.50;28.60
21355;DHT22;10835;50.148;19.760;2023-04-24T07:37:57;32.10;28.90
21355;DHT22;10835;50.148;19.760;2023-04-24T07:40:26;32.30;28.90
21355;DHT22;10835;50.148;19.760;2023-04-24T07:42:54;32.40;28.10
21355;DHT22;10835;50.148;19.760;2023-04-24T07:45:25;32.30;29.70
21355;DHT22;10835;50.148;19.760;2023-04-24T07:47:55;32.50;27.60
21355;DHT22;10835;50.148;19.760;2023-04-24T07:50:25;32.60;27.70
21355;DHT22;10835;50.148;19.760;2023-04-24T07:52:54;32.70;27.90
21355;DHT22;10835;50.148;19.760;2023-04-24T07:55:22;32.50;27.70
21355;DHT22;10835;50.148;19.760;2023-04-24T07:57:54;32.80;27.80
21355;DHT22;10835;50.148;19.760;2023-04-24T08:00:24;32.70;28.10
21355;DHT22;10835;50.148;19.760;2023-04-24T08:02:52;32.40;28.10
21355;DHT22;10835;50.148;19.760;2023-04-24T08:05:20;32.70;28.20
21355;DHT22;10835;50.148;19.760;2023-04-24T08:07:50;32.80;28.20
21355;DHT22;10835;50.148;19.760;2023-04-24T08:10:19;32.80;27.80
21355;DHT22;10835;50.148;19.760;2023-04-24T08:12:48;32.50;27.50
21355;DHT22;10835;50.148;19.760;2023-04-24T08:15:17;32.60;27.70
21355;DHT22;10835;50.148;19.760;2023-04-24T08:17:45;32.20;27.30
21355;DHT22;10835;50.148;19.760;2023-04-24T08:20:14;32.40;26.00
21355;DHT22;10835;50.148;19.760;2023-04-24T08:22:43;32.40;28.20
21355;DHT22;10835;50.148;19.760;2023-04-24T08:25:15;32.70;28.30
21355;DHT22;10835;50.148;19.760;2023-04-24T08:27:44;32.90;27.50
21355;DHT22;10835;50.148;19.760;2023-04-24T08:30:13;32.70;27.70
21355;DHT22;10835;50.148;19.760;2023-04-24T08:32:41;32.60;29.40
21355;DHT22;10835;50.148;19.760;2023-04-24T08:35:10;32.60;27.70
21355;DHT22;10835;50.148;19.760;2023-04-24T08:37:38;32.80;27.60
21355;DHT22;10835;50.148;19.760;2023-04-24T08:40:12;33.00;28.10
21355;DHT22;10835;50.148;19.760;2023-04-24T08:42:43;33.10;27.30
21355;DHT22;10835;50.148;19.760;2023-04-24T08:45:12;33.00;27.80
21355;DHT22;10835;50.148;19.760;2023-04-24T08:47:41;32.80;27.40
21355;DHT22;10835;50.148;19.760;2023-04-24T08:50:11;33.00;26.90
21355;DHT22;10835;50.148;19.760;2023-04-24T08:52:39;33.10;26.70
21355;DHT22;10835;50.148;19.760;2023-04-24T08:55:09;33.20;27.10
21355;DHT22;10835;50.148;19.760;2023-04-24T08:57:38;32.70;28.60
21355;DHT22;10835;50.148;19.760;2023-04-24T09:00:09;33.20;29.20
21355;DHT22;10835;50.148;19.760;2023-04-24T09:02:41;33.50;26.70
21355;DHT22;10835;50.148;19.760;2023-04-24T09:05:12;33.20;27.60
21355;DHT22;10835;50.148;19.760;2023-04-24T09:07:42;32.80;26.70
21355;DHT22;10835;50.148;19.760;2023-04-24T09:10:12;32.60;26.40
21355;DHT22;10835;50.148;19.760;2023-04-24T09:12:44;32.10;25.80
21355;DHT22;10835;50.148;19.760;2023-04-24T09:15:15;32.10;26.80
21355;DHT22;10835;50.148;19.760;2023-04-24T09:17:43;32.20;26.80
21355;DHT22;10835;50.148;19.760;2023-04-24T09:20:12;32.20;26.50
21355;DHT22;10835;50.148;19.760;2023-04-24T09:22:41;32.90;25.60
21355;DHT22;10835;50.148;19.760;2023-04-24T09:25:09;32.80;25.60
21355;DHT22;10835;50.148;19.760;2023-04-24T09:27:42;32.20;25.80
21355;DHT22;10835;50.148;19.760;2023-04-24T09:30:21;32.40;26.50
21355;DHT22;10835;50.148;19.760;2023-04-24T09:32:49;33.00;25.40
21355;DHT22;10835;50.148;19.760;2023-04-24T09:35:26;32.60;26.30
21355;DHT22;10835;50.148;19.760;2023-04-24T09:37:57;32.60;26.00
21355;DHT22;10835;50.148;19.760;2023-04-24T09:40:26;32.40;25.40
21355;DHT22;10835;50.148;19.760;2023-04-24T09:42:56;32.50;25.50
21355;DHT22;10835;50.148;19.760;2023-04-24T09:45:29;32.40;26.30
21355;DHT22;10835;50.148;19.760;2023-04-24T09:48:03;32.40;24.80
21355;DHT22;10835;50.148;19.760;2023-04-24T09:50:32;31.90;25.30
21355;DHT22;10835;50.148;19.760;2023-04-24T09:53:05;31.70;25.40
21355;DHT22;10835;50.148;19.760;2023-04-24T09:55:39;31.40;26.10
21355;DHT22;10835;50.148;19.760;2023-04-24T09:58:08;31.80;26.30
21355;DHT22;10835;50.148;19.760;2023-04-24T10:00:38;31.70;26.20
21355;DHT22;10835;50.148;19.760;2023-04-24T10:03:07;31.80;25.70
21355;DHT22;10835;50.148;19.760;2023-04-24T10:05:36;32.20;27.00
21355;DHT22;10835;50.148;19.760;2023-04-24T10:08:06;32.10;27.10
21355;DHT22;10835;50.148;19.760;2023-04-24T10:10:39;32.60;27.50
21355;DHT22;10835;50.148;19.760;2023-04-24T10:13:09;32.00;27.30
21355;DHT22;10835;50.148;19.760;2023-04-24T10:15:40;32.10;28.30
21355;DHT22;10835;50.148;19.760;2023-04-24T10:18:10;32.30;26.70
21355;DHT22;10835;50.148;19.760;2023-04-24T10:20:40;32.30;26.90
21355;DHT22;10835;50.148;19.760;2023-04-24T10:23:08;32.40;27.20
21355;DHT22;10835;50.148;19.760;2023-04-24T10:25:36;32.30;27.50
21355;DHT22;10835;50.148;19.760;2023-04-24T10:28:05;32.00;26.20
21355;DHT22;10835;50.148;19.760;2023-04-24T10:30:37;31.80;26.20
21355;DHT22;10835;50.148;19.760;2023-04-24T10:33:07;31.30;28.30
21355;DHT22;10835;50.148;19.760;2023-04-24T10:35:39;30.80;25.70
21355;DHT22;10835;50.148;19.760;2023-04-24T10:38:09;31.00;25.80
21355;DHT22;10835;50.148;19.760;2023-04-24T10:40:38;30.90;25.80
21355;DHT22;10835;50.148;19.760;2023-04-24T10:43:08;31.60;25.30
21355;DHT22;10835;50.148;19.760;2023-04-24T10:45:38;31.60;25.40
21355;DHT22;10835;50.148;19.760;2023-04-24T10:48:08;31.80;25.60
21355;DHT22;10835;50.148;19.760;2023-04-24T10:50:44;31.80;25.40
21355;DHT22;10835;50.148;19.760;2023-04-24T10:53:15;31.80;25.90
21355;DHT22;10835;50.148;19.760;2023-04-24T10:55:46;32.00;25.50
21355;DHT22;10835;50.148;19.760;2023-04-24T10:58:15;31.80;24.80
21355;DHT22;10835;50.148;19.760;2023-04-24T11:00:48;31.80;25.10
21355;DHT22;10835;50.148;19.760;2023-04-24T11:03:26;32.20;25.20
21355;DHT22;10835;50.148;19.760;2023-04-24T11:06:00;31.80;26.60
21355;DHT22;10835;50.148;19.760;2023-04-24T11:08:31;32.00;24.50
21355;DHT22;10835;50.148;19.760;2023-04-24T11:11:02;33.00;24.40
21355;DHT22;10835;50.148;19.760;2023-04-24T11:14:06;32.70;24.20
21355;DHT22;10835;50.148;19.760;2023-04-24T11:16:43;32.90;24.50
21355;DHT22;10835;50.148;19.760;2023-04-24T11:19:22;33.30;24.90
21355;DHT22;10835;50.148;19.760;2023-04-24T11:21:58;33.70;25.00
21355;DHT22;10835;50.148;19.760;2023-04-24T11:24:31;34.00;25.60
21355;DHT22;10835;50.148;19.760;2023-04-24T11:27:06;33.70;25.80
21355;DHT22;10835;50.148;19.760;2023-04-24T11:29:42;33.90;26.70
21355;DHT22;10835;50.148;19.760;2023-04-24T11:32:19;33.70;26.20
21355;DHT22;10835;50.148;19.760;2023-04-24T11:34:50;33.60;24.90
21355;DHT22;10835;50.148;19.760;2023-04-24T11:37:19;33.50;26.50
21355;DHT22;10835;50.148;19.760;2023-04-24T11:39:50;34.00;26.40
21355;DHT22;10835;50.148;19.760;2023-04-24T11:42:21;33.90;25.70
21355;DHT22;10835;50.148;19.760;2023-04-24T11:44:49;33.90;26.80
21355;DHT22;10835;50.148;19.760;2023-04-24T11:47:18;33.70;25.80
21355;DHT22;10835;50.148;19.760;2023-04-24T11:49:46;33.60;25.50
21355;DHT22;10835;50.148;19.760;2023-04-24T11:52:19;34.00;25.40
21355;DHT22;10835;50.148;19.760;2023-04-24T11:54:48;34.10;25.70
21355;DHT22;10835;50.148;19.760;2023-04-24T11:57:19;33.50;27.00
21355;DHT22;10835;50.148;19.760;2023-04-24T11:59:49;33.30;26.80
21355;DHT22;10835;50.148;19.760;2023-04-24T12:02:21;33.70;27.10
21355;DHT22;10835;50.148;19.760;2023-04-24T12:04:50;33.90;25.70
21355;DHT22;10835;50.148;19.760;2023-04-24T12:07:21;34.20;25.50
21355;DHT22;10835;50.148;19.760;2023-04-24T12:09:55;34.10;24.80
21355;DHT22;10835;50.148;19.760;2023-04-24T12:12:25;34.30;25.20
21355;DHT22;10835;50.148;19.760;2023-04-24T12:14:55;34.10;26.30
21355;DHT22;10835;50.148;19.760;2023-04-24T12:17:25;34.40;26.00
21355;DHT22;10835;50.148;19.760;2023-04-24T12:19:58;34.30;25.30
21355;DHT22;10835;50.148;19.760;2023-04-24T12:22:43;33.50;25.00
21355;DHT22;10835;50.148;19.760;2023-04-24T12:25:12;33.20;25.70
21355;DHT22;10835;50.148;19.760;2023-04-24T12:27:52;33.20;26.90
21355;DHT22;10835;50.148;19.760;2023-04-24T12:30:27;33.10;28.40
21355;DHT22;10835;50.148;19.760;2023-04-24T12:32:59;32.20;30.70
21355;DHT22;10835;50.148;19.760;2023-04-24T12:35:29;31.10;31.60
21355;DHT22;10835;50.148;19.760;2023-04-24T12:38:07;30.30;33.30
21355;DHT22;10835;50.148;19.760;2023-04-24T12:40:36;29.50;34.10
21355;DHT22;10835;50.148;19.760;2023-04-24T12:43:13;29.00;35.50
21355;DHT22;10835;50.148;19.760;2023-04-24T12:45:42;28.60;36.00
21355;DHT22;10835;50.148;19.760;2023-04-24T12:48:11;28.20;36.20
21355;DHT22;10835;50.148;19.760;2023-04-24T12:50:42;27.80;36.70
21355;DHT22;10835;50.148;19.760;2023-04-24T12:53:14;27.60;36.60
21355;DHT22;10835;50.148;19.760;2023-04-24T12:55:43;27.30;38.20
21355;DHT22;10835;50.148;19.760;2023-04-24T12:58:13;27.40;38.50
21355;DHT22;10835;50.148;19.760;2023-04-24T13:00:42;27.60;38.30
21355;DHT22;10835;50.148;19.760;2023-04-24T13:03:12;27.50;38.50
21355;DHT22;10835;50.148;19.760;2023-04-24T13:05:42;27.50;39.00
21355;DHT22;10835;50.148;19.760;2023-04-24T13:08:11;27.40;38.70
21355;DHT22;10835;50.148;19.760;2023-04-24T13:10:41;26.80;38.60
21355;DHT22;10835;50.148;19.760;2023-04-24T13:13:09;26.70;39.30
21355;DHT22;10835;50.148;19.760;2023-04-24T13:15:38;26.60;39.40
21355;DHT22;10835;50.148;19.760;2023-04-24T13:18:06;26.20;40.00
21355;DHT22;10835;50.148;19.760;2023-04-24T13:20:34;26.40;39.80
21355;DHT22;10835;50.148;19.760;2023-04-24T13:23:03;26.40;40.50
21355;DHT22;10835;50.148;19.760;2023-04-24T13:25:35;26.30;41.00
21355;DHT22;10835;50.148;19.760;2023-04-24T13:28:05;26.30;40.20
21355;DHT22;10835;50.148;19.760;2023-04-24T13:30:33;26.10;40.60
21355;DHT22;10835;50.148;19.760;2023-04-24T13:33:02;26.10;40.30
21355;DHT22;10835;50.148;19.760;2023-04-24T13:35:33;26.10;40.20
21355;DHT22;10835;50.148;19.760;2023-04-24T13:38:01;26.20;40.10
21355;DHT22;10835;50.148;19.760;2023-04-24T13:40:33;25.90;39.80
21355;DHT22;10835;50.148;19.760;2023-04-24T13:43:01;25.80;40.40
21355;DHT22;10835;50.148;19.760;2023-04-24T13:45:31;25.80;40.30
21355;DHT22;10835;50.148;19.760;2023-04-24T13:47:59;25.90;40.50
21355;DHT22;10835;50.148;19.760;2023-04-24T13:50:28;26.20;39.60
21355;DHT22;10835;50.148;19.760;2023-04-24T13:52:56;26.50;39.60
21355;DHT22;10835;50.148;19.760;2023-04-24T13:55:29;26.50;39.40
21355;DHT22;10835;50.148;19.760;2023-04-24T13:57:57;27.00;39.50
21355;DHT22;10835;50.148;19.760;2023-04-24T14:00:26;26.90;38.70
21355;DHT22;10835;50.148;19.760;2023-04-24T14:02:58;26.90;39.00
21355;DHT22;10835;50.148;19.760;2023-04-24T14:05:26;26.60;38.80
21355;DHT22;10835;50.148;19.760;2023-04-24T14:07:54;26.60;38.50
21355;DHT22;10835;50.148;19.760;2023-04-24T14:10:23;26.70;38.60
21355;DHT22;10835;50.148;19.760;2023-04-24T14:12:51;26.30;38.70
21355;DHT22;10835;50.148;19.760;2023-04-24T14:15:19;26.10;39.20
21355;DHT22;10835;50.148;19.760;2023-04-24T14:17:48;25.80;39.70
21355;DHT22;10835;50.148;19.760;2023-04-24T14:20:18;25.60;40.30
21355;DHT22;10835;50.148;19.760;2023-04-24T14:22:47;25.60;40.30
21355;DHT22;10835;50.148;19.760;2023-04-24T14:25:15;25.70;40.90
21355;DHT22;10835;50.148;19.760;2023-04-24T14:27:43;25.70;41.20
21355;DHT22;10835;50.148;19.760;2023-04-24T14:30:12;25.70;40.50
21355;DHT22;10835;50.148;19.760;2023-04-24T14:32:42;25.80;40.50
21355;DHT22;10835;50.148;19.760;2023-04-24T14:35:10;26.30;41.10
21355;DHT22;10835;50.148;19.760;2023-04-24T14:37:40;26.20;40.10
21355;DHT22;10835;50.148;19.760;2023-04-24T14:40:10;26.50;40.50
21355;DHT22;10835;50.148;19.760;2023-04-24T14:42:58;26.40;40.50
21355;DHT22;10835;50.148;19.760;2023-04-24T14:45:27;26.60;40.50
21355;DHT22;10835;50.148;19.760;2023-04-24T14:47:55;26.20;40.30
21355;DHT22;10835;50.148;19.760;2023-04-24T14:50:24;25.90;40.60
21355;DHT22;10835;50.148;19.760;2023-04-24T14:52:56;26.20;40.30
21355;DHT22;10835;50.148;19.760;2023-04-24T14:55:25;26.30;40.60
21355;DHT22;10835;50.148;19.760;2023-04-24T14:57:53;26.50;41.10
21355;DHT22;10835;50.148;19.760;2023-04-24T15:00:22;26.90;40.10
21355;DHT22;10835;50.148;19.760;2023-04-24T15:02:51;26.60;40.30
21355;DHT22;10835;50.148;19.760;2023-04-24T15:05:19;26.60;40.40
21355;DHT22;10835;50.148;19.760;2023-04-24T15:07:50;26.70;40.30
21355;DHT22;10835;50.148;19.760;2023-04-24T15:10:20;26.70;40.40
21355;DHT22;10835;50.148;19.760;2023-04-24T15:12:49;26.70;40.60
21355;DHT22;10835;50.148;19.760;2023-04-24T15:15:18;26.70;40.50
21355;DHT22;10835;50.148;19.760;2023-04-24T15:17:46;27.10;40.40
21355;DHT22;10835;50.148;19.760;2023-04-24T15:20:14;27.10;40.30
21355;DHT22;10835;50.148;19.760;2023-04-24T15:22:43;27.60;39.70
21355;DHT22;10835;50.148;19.760;2023-04-24T15:25:11;27.50;39.30
21355;DHT22;10835;50.148;19.760;2023-04-24T15:27:42;27.50;40.10
21355;DHT22;10835;50.148;19.760;2023-04-24T15:30:11;27.20;39.30
21355;DHT22;10835;50.148;19.760;2023-04-24T15:32:40;27.50;39.60
21355;DHT22;10835;50.148;19.760;2023-04-24T15:35:09;27.80;39.60